Time;durP1;ratioP1;P1;durP2;ratioP2;P2;SDS_P1;SDS_P2;PMS_P1;PMS_P2;Temp;Humidity;BMP_temperature;BMP_pressure;BME280_temperature;BME280_humidity;BME280_pressure;Samples;Min_cycle;Max_cycle;Signal;HPM_P1;HPM_P2
2022/03/01 00:08:23;;;;;;;2.33;1.90;;;;;;;;;;20711981;28;20632;-65
2022/03/01 00:18:24;;;;;;;2.33;1.67;;;;;;;;;;20711329;28;20714;-65
2022/03/01 00:28:26;;;;;;;2.43;1.57;;;;;;;;;;20711590;28;20682;-64
2022/03/01 00:38:28;;;;;;;1.93;1.23;;;;;;;;;;20693829;28;20219;-64
2022/03/01 00:48:30;;;;;;;2.40;1.73;;;;;;;;;;20703309;28;20277;-64
2022/03/01 00:58:32;;;;;;;2.87;1.90;;;;;;;;;;20693178;28;20675;-65
2022/03/01 01:08:35;;;;;;;3.73;1.27;;;3.70;99.90;;;;;;20741242;28;20281;-65
2022/03/01 01:18:43;;;;;;;2.63;1.77;;;;;;;;;;20725097;28;20652;-65
2022/03/01 01:28:44;;;;;;;2.93;1.73;;;;;;;;;;20723767;28;20574;-65
2022/03/01 01:38:46;;;;;;;1.93;1.40;;;;;;;;;;20721822;28;20254;-65
2022/03/01 01:48:48;;;;;;;3.50;2.20;;;;;;;;;;20720798;28;20215;-64
2022/03/01 01:58:50;;;;;;;2.57;1.50;;;;;;;;;;20721523;28;20227;-64
2022/03/01 02:08:52;;;;;;;1.97;1.60;;;;;;;;;;20763244;28;20682;-65
2022/03/01 02:18:54;;;;;;;2.13;1.33;;;;;;;;;;20753277;28;20262;-64
2022/03/01 02:28:56;;;;;;;1.50;1.27;;;;;;;;;;20736681;28;20231;-65
2022/03/01 02:38:57;;;;;;;2.10;1.67;;;3.20;99.90;;;;;;20735439;28;20273;-64
2022/03/01 02:49:00;;;;;;;1.83;1.07;;;3.10;99.90;;;;;;20766553;28;20242;-65
2022/03/01 02:59:02;;;;;;;2.90;1.50;;;;;;;;;;20750355;28;20215;-65
2022/03/01 03:09:04;;;;;;;2.50;1.80;;;;;;;;;;20750015;28;20234;-65
2022/03/01 03:19:06;;;;;;;1.97;1.47;;;;;;;;;;20732486;28;20286;-64
2022/03/01 03:29:08;;;;;;;2.43;1.67;;;2.80;99.90;;;;;;20732060;28;20207;-65
2022/03/01 03:39:11;;;;;;;1.77;1.20;;;2.60;99.90;;;;;;20731026;28;20230;-65
2022/03/01 03:49:13;;;;;;;1.93;1.30;;;;;;;;;;20730075;28;20273;-65
2022/03/01 03:59:15;;;;;;;2.07;1.43;;;;;;;;;;20745808;28;20273;-65
2022/03/01 04:09:17;;;;;;;1.87;1.43;;;;;;;;;;20728770;28;20211;-65
2022/03/01 04:19:18;;;;;;;2.93;1.80;;;;;;;;;;20728065;28;20258;-64
2022/03/01 04:29:20;;;;;;;4.13;2.37;;;;;;;;;;20726935;28;20749;-65
2022/03/01 04:39:22;;;;;;;2.27;1.37;;;;;;;;;;20720388;28;20639;-65
2022/03/01 04:49:24;;;;;;;3.87;2.37;;;;;;;;;;20707393;28;20265;-65
2022/03/01 04:59:26;;;;;;;2.10;1.60;;;;;;;;;;20693229;28;20273;-63
2022/03/01 05:09:28;;;;;;;2.30;1.70;;;;;;;;;;20702049;28;20203;-63
2022/03/01 05:19:29;;;;;;;2.27;1.83;;;;;;;;;;20691629;28;20682;-63
2022/03/01 05:29:31;;;;;;;2.83;1.67;;;;;;;;;;20697546;28;20671;-63
2022/03/01 05:39:33;;;;;;;8.23;1.60;;;;;;;;;;20708103;28;20223;-64
2022/03/01 05:49:35;;;;;;;4.33;1.63;;;;;;;;;;20739216;28;20241;-64
2022/03/01 05:59:37;;;;;;;2.27;1.70;;;;;;;;;;20754909;28;20223;-63
2022/03/01 06:09:39;;;;;;;3.03;1.87;;;;;;;;;;20719540;28;21008;-64
2022/03/01 06:19:40;;;;;;;1.63;1.30;;;;;;;;;;20689652;22;20297;-84
2022/03/01 06:46:25;;;;;;;3.53;2.20;;;;;;;;;;21174975;27;20586;-66
2022/03/01 06:56:27;;;;;;;3.00;2.03;;;;;;;;;;21127135;28;20771;-65
2022/03/01 07:06:29;;;;;;;2.13;1.47;;;;;;;;;;21109980;28;20257;-66
2022/03/01 07:16:31;;;;;;;1.63;1.30;;;;;;;;;;21109221;28;20212;-66
2022/03/01 07:26:33;;;;;;;2.10;1.60;;;;;;;;;;21108060;28;20260;-66
2022/03/01 07:36:34;;;;;;;2.17;1.70;;;;;;;;;;21107573;28;20655;-66
2022/03/01 07:46:36;;;;;;;3.13;1.83;;;;;;;;;;21106185;28;20204;-68
2022/03/01 07:56:39;;;;;;;3.10;2.00;;;;;;;;;;21073039;28;20269;-68
2022/03/01 08:06:41;;;;;;;2.30;1.53;;;;;;;;;;21049150;28;20204;-68
2022/03/01 08:16:43;;;;;;;2.63;1.63;;;;;;;;;;21048716;28;20204;-68
2022/03/01 08:26:45;;;;;;;8.60;2.23;;;;;;;;;;21033652;28;20349;-68
2022/03/01 08:36:47;;;;;;;3.53;2.10;;;;;;;;;;21036956;28;20588;-67
2022/03/01 08:46:48;;;;;;;3.10;1.90;;;;;;;;;;21045528;28;20228;-68
2022/03/01 08:56:51;;;;;;;3.73;1.63;;;;;;;;;;21061574;28;20278;-68
2022/03/01 09:06:53;;;;;;;2.67;1.83;;;;;;;;;;21043159;28;20217;-67
2022/03/01 09:16:54;;;;;;;4.67;2.43;;;;;;;;;;21043723;28;20262;-67
2022/03/01 09:27:00;;;;;;;6.70;2.47;;;;;;;;;;21042780;28;20266;-67
2022/03/01 09:37:02;;;;;;;2.93;1.87;;;;;;;;;;21041634;28;20216;-67
2022/03/01 09:47:04;;;;;;;7.27;2.20;;;;;;;;;;21057939;28;20220;-67
2022/03/01 09:57:06;;;;;;;2.17;1.50;;;;;;;;;;21057716;28;20216;-67
2022/03/01 10:07:11;;;;;;;1.87;0.90;;;5.90;99.90;;;;;;21039846;28;20215;-67
2022/03/01 10:17:14;;;;;;;2.97;1.37;;;;;;;;;;21056047;28;20196;-67
2022/03/01 10:27:28;;;;;;;2.63;1.53;;;5.70;99.90;;;;;;21072068;28;20216;-68
2022/03/01 10:37:32;;;;;;;0.70;0.57;;;;;;;;;;21069902;28;20281;-67
2022/03/01 10:47:35;;;;;;;1.60;1.30;;;;;;;;;;21071367;28;20760;-67
2022/03/01 10:57:37;;;;;;;2.30;1.23;;;;;;;;;;21054287;28;20212;-68
2022/03/01 11:07:40;;;;;;;2.20;1.23;;;7.60;99.90;;;;;;21037310;28;20293;-67
2022/03/01 11:17:50;;;;;;;2.83;1.50;;;;;;;;;;21051171;28;20556;-67
2022/03/01 11:28:01;;;;;;;2.60;1.33;;;7.80;99.90;;;;;;21043838;28;20216;-67
2022/03/01 11:38:12;;;;;;;3.23;1.63;;;;;;;;;;21065414;28;20228;-67
2022/03/01 11:48:22;;;;;;;2.50;1.40;;;7.50;99.90;;;;;;21056884;28;20265;-67
2022/03/01 11:58:24;;;;;;;2.43;1.20;;;;;;;;;;21026123;28;20277;-68
2022/03/01 12:08:28;;;;;;;1.57;0.90;;;;;;;;;;21063701;28;20220;-67
2022/03/01 12:18:35;;;;;;;3.03;1.43;;;7.10;99.90;;;;;;21041627;28;20213;-68
2022/03/01 12:28:38;;;;;;;2.00;1.33;;;8.00;99.90;;;;;;21046901;28;20749;-67
2022/03/01 12:38:40;;;;;;;2.10;1.23;;;;;;;;;;21037557;28;20224;-67
2022/03/01 12:48:45;;;;;;;3.60;1.50;;;8.50;99.90;;;;;;21043447;28;20281;-67
2022/03/01 12:58:47;;;;;;;2.07;1.13;;;8.90;99.90;;;;;;21045223;28;20227;-68
2022/03/01 13:08:53;;;;;;;2.23;1.40;;;;;;;;;;21078154;28;20230;-67
2022/03/01 13:18:56;;;;;;;3.23;1.80;;;;;;;;;;21034070;28;20270;-66
2022/03/01 13:29:09;;;;;;;3.47;1.27;;;;;;;;;;21042280;28;20212;-66
2022/03/01 13:39:13;;;;;;;2.90;1.40;;;;;;;;;;21042200;28;20219;-66
2022/03/01 13:49:15;;;;;;;2.43;1.20;;;;;;;;;;21056934;28;20273;-66
2022/03/01 13:59:19;;;;;;;3.03;1.43;;;9.60;99.90;;;;;;21035846;28;20212;-65
2022/03/01 14:09:23;;;;;;;2.83;1.30;;;;;;;;;;21046485;28;20264;-66
2022/03/01 14:19:25;;;;;;;2.07;1.33;;;9.50;99.90;;;;;;21039504;28;20266;-66
2022/03/01 14:29:27;;;;;;;2.17;1.27;;;;;;;;;;21004872;28;20216;-66
2022/03/01 14:39:28;;;;;;;4.33;1.97;;;;;;;;;;21030267;28;20253;-65
2022/03/01 14:49:30;;;;;;;2.03;1.17;;;;;;;;;;21035515;28;20269;-66
2022/03/01 14:59:32;;;;;;;2.13;0.97;;;;;;;;;;21038484;28;20216;-66
2022/03/01 15:09:34;;;;;;;2.60;1.40;;;;;;;;;;21064121;28;20293;-65
2022/03/01 15:19:37;;;;;;;1.30;0.83;;;7.90;99.90;;;;;;21050054;28;20209;-66
2022/03/01 15:29:38;;;;;;;1.90;1.07;;;;;;;;;;21049065;28;20220;-66
2022/03/01 15:39:43;;;;;;;2.90;1.27;;;;;;;;;;21046268;28;20296;-66
2022/03/01 15:49:45;;;;;;;2.23;1.10;;;;;;;;;;21048588;28;20300;-66
2022/03/01 15:59:47;;;;;;;1.50;0.90;;;;;;;;;;21047978;28;20583;-66
2022/03/01 16:09:49;;;;;;;1.70;1.00;;;;;;;;;;21046963;28;20220;-66
2022/03/01 16:19:51;;;;;;;1.30;1.07;;;;;;;;;;21063201;28;20224;-66
2022/03/01 16:29:53;;;;;;;1.97;1.03;;;;;;;;;;21062388;28;20216;-66
2022/03/01 16:39:56;;;;;;;1.87;1.00;;;;;;;;;;21061882;28;20216;-66
2022/03/01 16:49:58;;;;;;;0.83;0.70;;;;;;;;;;21024243;28;20216;-66
2022/03/01 16:59:59;;;;;;;2.03;1.17;;;;;;;;;;21038806;28;20209;-66
2022/03/01 17:10:01;;;;;;;2.73;1.67;;;;;;;;;;21033473;28;20225;-66
2022/03/01 17:20:04;;;;;;;3.03;1.90;;;;;;;;;;21052239;28;20263;-66
2022/03/01 17:30:08;;;;;;;2.87;1.63;;;7.10;99.90;;;;;;21030541;28;20220;-66
2022/03/01 17:40:10;;;;;;;3.23;1.70;;;7.00;99.90;;;;;;21029807;28;20590;-66
2022/03/01 17:50:12;;;;;;;3.63;1.97;;;;;;;;;;20984422;28;20294;-66
2022/03/01 18:00:14;;;;;;;9.13;2.33;;;;;;;;;;21003255;28;20208;-66
2022/03/01 18:10:16;;;;;;;2.73;1.80;;;;;;;;;;21010313;28;20212;-66
2022/03/01 18:20:19;;;;;;;3.37;2.03;;;;;;;;;;21034123;28;20278;-66
2022/03/01 18:30:22;;;;;;;2.40;1.67;;;;;;;;;;21015182;28;20208;-66
2022/03/01 18:40:24;;;;;;;3.27;1.83;;;;;;;;;;21045937;28;20216;-66
2022/03/01 18:50:26;;;;;;;4.40;1.97;;;6.60;99.90;;;;;;21013673;28;20276;-66
2022/03/01 19:00:28;;;;;;;3.77;2.27;;;;;;;;;;21022861;28;20815;-66
2022/03/01 19:10:30;;;;;;;3.00;2.53;;;;;;;;;;21003566;28;20246;-66
2022/03/01 19:20:32;;;;;;;5.23;2.23;;;6.40;99.90;;;;;;21026351;28;20220;-66
2022/03/01 19:30:35;;;;;;;3.80;1.93;;;;;;;;;;21021474;28;20263;-66
2022/03/01 19:40:37;;;;;;;4.23;2.47;;;;;;;;;;20985265;28;20220;-66
2022/03/01 19:50:41;;;;;;;4.40;2.73;;;6.20;99.90;;;;;;21026891;28;20256;-66
2022/03/01 20:00:43;;;;;;;3.73;2.87;;;;;;;;;;21008682;28;20213;-66
2022/03/01 20:10:45;;;;;;;8.17;4.37;;;;;;;;;;20997256;28;20329;-65
2022/03/01 20:20:48;;;;;;;6.57;4.10;;;5.80;99.90;;;;;;21052360;28;20212;-66
2022/03/01 20:30:50;;;;;;;3.63;2.67;;;;;;;;;;21024954;28;20228;-66
2022/03/01 20:40:52;;;;;;;3.80;2.60;;;;;;;;;;21029774;28;20260;-66
2022/03/01 20:50:55;;;;;;;6.73;3.17;;;;;;;;;;21066812;28;20236;-66
2022/03/01 21:00:57;;;;;;;3.27;2.53;;;;;;;;;;21037570;28;20629;-65
2022/03/01 21:10:59;;;;;;;3.57;2.50;;;;;;;;;;21033675;28;20240;-66
2022/03/01 21:21:03;;;;;;;4.13;2.73;;;;;;;;;;21027229;28;20204;-66
2022/03/01 21:31:06;;;;;;;4.90;3.20;;;;;;;;;;21023200;28;20216;-66
2022/03/01 21:41:08;;;;;;;8.77;5.23;;;;;;;;;;21027008;28;20224;-66
2022/03/01 21:51:09;;;;;;;2.90;1.70;;;;;;;;;;21030540;28;20689;-66
2022/03/01 22:01:12;;;;;;;2.57;1.83;;;;;;;;;;21064457;28;20226;-66
2022/03/01 22:11:14;;;;;;;2.10;1.43;;;;;;;;;;21029957;28;20281;-66
2022/03/01 22:21:15;;;;;;;2.00;1.53;;;;;;;;;;21024550;28;20760;-66
2022/03/01 22:31:17;;;;;;;3.30;1.80;;;;;;;;;;21051441;28;20277;-66
2022/03/01 22:41:19;;;;;;;3.47;1.70;;;;;;;;;;21035675;28;20220;-66
2022/03/01 22:51:21;;;;;;;3.07;1.63;;;;;;;;;;21037434;28;20282;-66
2022/03/01 23:01:27;;;;;;;2.40;1.43;;;;;;;;;;21037511;28;20200;-66
2022/03/01 23:11:29;;;;;;;2.47;1.80;;;;;;;;;;21034361;28;20274;-66
2022/03/01 23:21:32;;;;;;;2.63;1.97;;;;;;;;;;21073864;28;20242;-66
2022/03/01 23:31:34;;;;;;;2.03;1.40;;;;;;;;;;21052657;28;20273;-66
2022/03/01 23:41:36;;;;;;;2.00;1.50;;;;;;;;;;21051865;28;20274;-66
2022/03/01 23:51:37;;;;;;;2.13;1.43;;;;;;;;;;21050601;28;20258;-66
